Time;durP1;ratioP1;P1;durP2;ratioP2;P2;SDS_P1;SDS_P2;PMS_P1;PMS_P2;Temp;Humidity;BMP_temperature;BMP_pressure;BME280_temperature;BME280_humidity;BME280_pressure;Samples;Min_cycle;Max_cycle;Signal;HPM_P1;HPM_P2
2021/12/20 00:00:42;;;;;;;24.20;17.52;;;4.60;99.90;;;;;;5029514;28;20025;-73
2021/12/20 00:03:08;;;;;;;25.50;17.60;;;4.60;99.90;;;;;;5031089;28;20037;-74
2021/12/20 00:05:34;;;;;;;23.08;16.35;;;4.60;99.90;;;;;;5033837;28;20025;-79
2021/12/20 00:07:59;;;;;;;29.73;17.15;;;4.60;99.90;;;;;;5031961;28;20061;-78
2021/12/20 00:10:25;;;;;;;23.45;17.70;;;4.50;99.90;;;;;;5028488;28;20031;-80
2021/12/20 00:12:51;;;;;;;29.17;18.88;;;4.50;99.90;;;;;;5033463;28;20100;-80
2021/12/20 00:15:18;;;;;;;28.70;18.88;;;4.50;99.90;;;;;;5033608;28;20084;-79
2021/12/20 00:17:45;;;;;;;22.35;15.98;;;4.50;99.90;;;;;;5035951;28;20053;-79
2021/12/20 00:20:11;;;;;;;23.98;15.52;;;4.50;99.90;;;;;;5033677;28;20124;-82
2021/12/20 00:22:37;;;;;;;20.00;14.57;;;4.50;99.90;;;;;;5031232;28;20457;-80
2021/12/20 00:25:04;;;;;;;21.98;16.38;;;4.50;99.90;;;;;;5035132;28;20049;-79
2021/12/20 00:27:30;;;;;;;21.65;15.48;;;4.50;99.90;;;;;;5033117;28;20035;-79
2021/12/20 00:29:56;;;;;;;19.75;14.70;;;4.50;99.90;;;;;;5034801;28;20044;-79
2021/12/20 00:32:21;;;;;;;18.73;13.73;;;4.50;99.90;;;;;;5034882;28;20094;-81
2021/12/20 00:34:47;;;;;;;20.45;14.32;;;4.50;99.90;;;;;;5034828;28;20025;-80
2021/12/20 00:42:43;;;;;;;22.92;16.02;;;4.60;99.90;;;;;;5033748;28;20048;-78
2021/12/20 00:45:10;;;;;;;24.70;17.05;;;4.60;99.90;;;;;;5034884;28;20025;-78
2021/12/20 00:47:36;;;;;;;21.95;16.05;;;4.60;99.90;;;;;;5032950;28;20036;-79
2021/12/20 00:50:03;;;;;;;23.27;15.63;;;4.70;99.90;;;;;;5033689;28;20039;-79
2021/12/20 00:52:29;;;;;;;24.90;17.13;;;5.00;99.90;;;;;;5032687;28;20025;-79
2021/12/20 00:54:54;;;;;;;26.98;17.80;;;5.10;99.90;;;;;;5030304;28;20025;-78
2021/12/20 00:57:20;;;;;;;27.60;17.13;;;5.10;99.90;;;;;;5033330;28;20063;-79
2021/12/20 00:59:46;;;;;;;26.33;17.50;;;4.90;99.90;;;;;;5033776;28;20486;-79
2021/12/20 01:02:12;;;;;;;28.05;17.75;;;4.60;99.90;;;;;;5033460;28;20025;-79
2021/12/20 01:04:37;;;;;;;28.20;16.10;;;4.50;99.90;;;;;;5035565;28;20389;-80
2021/12/20 01:07:03;;;;;;;22.73;15.38;;;4.80;99.90;;;;;;5050276;28;20090;-79
2021/12/20 01:09:28;;;;;;;25.65;16.98;;;5.00;99.90;;;;;;5051161;28;20128;-78
2021/12/20 01:12:01;;;;;;;24.88;16.38;;;5.00;99.90;;;;;;5054397;28;20037;-77
2021/12/20 01:14:27;;;;;;;24.98;16.80;;;4.90;99.90;;;;;;5037839;28;20034;-78
2021/12/20 01:16:56;;;;;;;26.80;17.33;;;4.70;99.90;;;;;;5036930;28;20033;-78
2021/12/20 01:19:22;;;;;;;25.20;16.98;;;4.50;99.90;;;;;;5034555;28;20021;-79
2021/12/20 01:21:48;;;;;;;28.90;17.95;;;4.30;99.90;;;;;;5034167;28;20104;-79
2021/12/20 01:24:14;;;;;;;29.73;17.98;;;4.20;99.90;;;;;;5034842;28;20057;-79
2021/12/20 01:26:39;;;;;;;29.25;19.25;;;4.20;99.90;;;;;;5033453;28;20028;-78
2021/12/20 01:29:05;;;;;;;32.10;17.65;;;4.20;99.90;;;;;;5032697;28;20029;-80
2021/12/20 01:31:30;;;;;;;27.48;17.02;;;4.10;99.90;;;;;;5043073;28;20013;-79
2021/12/20 01:33:56;;;;;;;26.88;18.23;;;4.10;99.90;;;;;;5063141;28;20024;-78
2021/12/20 01:36:22;;;;;;;30.23;17.75;;;4.20;99.90;;;;;;5064399;28;20009;-79
2021/12/20 01:38:47;;;;;;;23.50;16.58;;;4.20;99.90;;;;;;5054497;28;20026;-78
2021/12/20 01:41:14;;;;;;;27.55;16.83;;;4.30;99.90;;;;;;5043531;28;20087;-79
2021/12/20 01:43:39;;;;;;;30.48;17.63;;;4.30;99.90;;;;;;5031753;28;20021;-79
2021/12/20 01:46:05;;;;;;;24.45;16.70;;;4.20;99.90;;;;;;5031231;28;20500;-79
2021/12/20 01:48:31;;;;;;;26.05;16.15;;;4.10;99.90;;;;;;5032709;28;20026;-80
2021/12/20 01:53:27;;;;;;;27.45;18.65;;;4.30;99.90;;;;;;5033870;28;20148;-79
2021/12/20 01:55:54;;;;;;;26.13;15.80;;;4.30;99.90;;;;;;5032398;28;20097;-79
2021/12/20 01:58:21;;;;;;;24.63;15.85;;;4.10;99.90;;;;;;5032115;28;20129;-79
2021/12/20 02:01:18;;;;;;;28.73;16.52;;;4.00;99.90;;;;;;5026732;28;20390;-79
2021/12/20 02:03:48;;;;;;;26.75;16.13;;;4.00;99.90;;;;;;5031596;28;20021;-79
2021/12/20 02:06:34;;;;;;;28.15;16.50;;;4.10;99.90;;;;;;5028049;28;20026;-78
2021/12/20 02:09:09;;;;;;;27.92;16.42;;;4.00;99.90;;;;;;5028757;28;20040;-78
2021/12/20 02:11:37;;;;;;;28.92;18.15;;;4.00;99.90;;;;;;5031027;28;20400;-78
2021/12/20 02:14:03;;;;;;;29.65;17.83;;;4.00;99.90;;;;;;5031295;28;20425;-78
2021/12/20 02:16:29;;;;;;;27.23;17.00;;;4.00;99.90;;;;;;5023920;28;20026;-78
2021/12/20 02:18:55;;;;;;;26.92;16.77;;;4.00;99.90;;;;;;5030581;28;20029;-77
2021/12/20 02:21:21;;;;;;;26.88;15.57;;;4.00;99.90;;;;;;5030675;28;20025;-78
2021/12/20 02:23:48;;;;;;;27.65;17.00;;;4.10;99.90;;;;;;5031960;28;20535;-78
2021/12/20 02:26:17;;;;;;;25.38;16.58;;;4.10;99.90;;;;;;5031366;28;20083;-76
2021/12/20 02:28:46;;;;;;;26.17;16.52;;;4.20;99.90;;;;;;5030465;28;20409;-78
2021/12/20 02:38:59;;;;;;;24.67;16.02;;;4.30;99.90;;;;;;5027692;28;20040;-77
2021/12/20 02:41:30;;;;;;;30.05;17.25;;;4.40;99.90;;;;;;5029908;28;20022;-76
2021/12/20 02:44:03;;;;;;;25.05;16.17;;;4.50;99.90;;;;;;5030649;28;20053;-77
2021/12/20 02:49:10;;;;;;;27.08;17.75;;;4.40;99.90;;;;;;5032274;28;20029;-77
2021/12/20 02:51:37;;;;;;;29.20;15.80;;;4.30;99.90;;;;;;5034079;28;20029;-78
2021/12/20 02:54:05;;;;;;;25.45;16.05;;;4.30;99.90;;;;;;5032830;28;20106;-76
2021/12/20 02:56:31;;;;;;;25.63;15.68;;;4.30;99.90;;;;;;5035108;28;20470;-77
2021/12/20 02:58:56;;;;;;;24.27;15.75;;;4.30;99.90;;;;;;5035591;28;20033;-78
2021/12/20 03:01:23;;;;;;;24.58;16.10;;;4.40;99.90;;;;;;5035439;28;20018;-77
2021/12/20 03:03:50;;;;;;;26.13;16.35;;;4.30;99.90;;;;;;5036720;28;20021;-78
2021/12/20 03:06:25;;;;;;;30.13;16.50;;;4.20;99.90;;;;;;5033410;28;20029;-78
2021/12/20 03:08:54;;;;;;;24.00;15.38;;;4.00;99.90;;;;;;5033805;28;20087;-77
2021/12/20 03:11:21;;;;;;;23.25;14.98;;;4.30;99.90;;;;;;5028970;28;20022;-78
2021/12/20 03:13:51;;;;;;;22.75;16.25;;;4.40;99.90;;;;;;5035529;28;20022;-78
2021/12/20 03:16:17;;;;;;;20.75;14.57;;;4.40;99.90;;;;;;5034068;28;20026;-77
2021/12/20 03:18:43;;;;;;;24.42;15.32;;;4.40;99.90;;;;;;5034002;28;20112;-77
2021/12/20 03:21:09;;;;;;;26.17;16.52;;;4.30;99.90;;;;;;5035378;28;20025;-78
2021/12/20 03:23:35;;;;;;;21.65;14.45;;;4.20;99.90;;;;;;5036053;28;20025;-77
2021/12/20 03:26:01;;;;;;;26.33;16.55;;;4.10;99.90;;;;;;5032073;28;20025;-78
2021/12/20 03:28:26;;;;;;;24.10;15.65;;;4.10;99.90;;;;;;5035116;28;20033;-78
2021/12/20 03:30:52;;;;;;;24.75;15.82;;;4.10;99.90;;;;;;5034577;28;20029;-78
2021/12/20 03:33:18;;;;;;;23.63;15.32;;;4.20;99.90;;;;;;5035588;28;20104;-77
2021/12/20 03:35:43;;;;;;;24.67;15.75;;;4.30;99.90;;;;;;5035564;28;20090;-78
2021/12/20 03:38:09;;;;;;;24.25;16.25;;;4.40;99.90;;;;;;5028110;28;20129;-78
2021/12/20 03:40:35;;;;;;;23.88;15.27;;;4.40;99.90;;;;;;5035083;28;20032;-78
2021/12/20 03:43:01;;;;;;;27.05;16.60;;;4.50;99.90;;;;;;5035014;28;20021;-78
2021/12/20 03:45:26;;;;;;;26.02;16.75;;;4.50;99.90;;;;;;5034844;28;20055;-77
2021/12/20 03:47:52;;;;;;;25.40;15.93;;;4.40;99.90;;;;;;5034826;28;20101;-78
2021/12/20 03:50:18;;;;;;;29.85;16.60;;;4.10;99.90;;;;;;5034493;28;20091;-78
2021/12/20 03:52:43;;;;;;;28.13;17.13;;;3.90;99.90;;;;;;5033878;28;20029;-78
2021/12/20 03:55:12;;;;;;;29.05;18.38;;;3.90;99.90;;;;;;5034049;28;20040;-78
2021/12/20 03:57:37;;;;;;;27.92;17.52;;;3.80;99.90;;;;;;5036402;28;20045;-79
2021/12/20 04:00:09;;;;;;;25.75;16.60;;;3.80;99.90;;;;;;5038743;28;20398;-78
2021/12/20 04:02:41;;;;;;;28.35;16.80;;;3.80;99.90;;;;;;5039183;28;20021;-76
2021/12/20 04:05:07;;;;;;;26.95;16.60;;;3.80;99.90;;;;;;5036182;28;20024;-78
2021/12/20 04:07:34;;;;;;;27.27;18.00;;;3.80;99.90;;;;;;5034688;28;20033;-77
2021/12/20 04:10:00;;;;;;;27.95;17.42;;;3.80;99.90;;;;;;5035273;28;20029;-78
2021/12/20 04:12:26;;;;;;;29.48;16.90;;;3.80;99.90;;;;;;5034228;28;20032;-77
2021/12/20 04:14:52;;;;;;;32.50;19.08;;;3.80;99.90;;;;;;5034211;28;20033;-77
2021/12/20 04:17:18;;;;;;;29.42;18.15;;;3.80;99.90;;;;;;5044572;28;20093;-77
2021/12/20 04:19:43;;;;;;;33.03;18.77;;;3.80;99.90;;;;;;5051494;28;20045;-77
2021/12/20 04:22:09;;;;;;;30.08;16.52;;;3.80;99.90;;;;;;5046628;28;20041;-76
2021/12/20 04:24:35;;;;;;;29.02;18.08;;;3.80;99.90;;;;;;5048144;28;20050;-78
2021/12/20 04:27:01;;;;;;;27.92;17.25;;;3.80;99.90;;;;;;5035427;28;20033;-79
2021/12/20 04:29:28;;;;;;;28.95;19.42;;;3.80;99.90;;;;;;5033063;28;20041;-77
2021/12/20 04:31:54;;;;;;;25.60;18.58;;;3.80;99.90;;;;;;5035258;28;20021;-78
2021/12/20 04:34:20;;;;;;;30.75;17.80;;;3.90;99.90;;;;;;5031999;28;20029;-78
2021/12/20 04:36:45;;;;;;;25.15;16.25;;;3.80;99.90;;;;;;5034070;28;20539;-79
2021/12/20 04:39:15;;;;;;;30.25;17.15;;;3.80;99.90;;;;;;5032126;28;20073;-77
2021/12/20 04:41:41;;;;;;;28.00;17.77;;;3.80;99.90;;;;;;5034706;28;20021;-78
2021/12/20 04:44:07;;;;;;;27.58;16.15;;;3.90;99.90;;;;;;5032938;28;20029;-76
2021/12/20 04:46:33;;;;;;;26.38;16.05;;;3.90;99.90;;;;;;5034317;28;20032;-77
2021/12/20 04:48:59;;;;;;;28.85;16.05;;;3.90;99.90;;;;;;5034020;28;20112;-77
2021/12/20 04:51:24;;;;;;;26.05;17.10;;;4.00;99.90;;;;;;5033016;28;20309;-78
2021/12/20 04:53:50;;;;;;;25.13;16.13;;;4.00;99.90;;;;;;5031959;28;20392;-77
2021/12/20 04:56:15;;;;;;;23.60;15.25;;;4.10;99.90;;;;;;5033133;28;20147;-78
2021/12/20 04:58:41;;;;;;;24.83;14.80;;;4.30;99.90;;;;;;5033293;28;20029;-77
2021/12/20 05:01:06;;;;;;;24.70;15.38;;;4.40;99.90;;;;;;5034060;28;20418;-77
2021/12/20 05:03:32;;;;;;;29.65;16.98;;;4.30;99.90;;;;;;5032466;28;20013;-76
2021/12/20 05:05:58;;;;;;;20.75;15.02;;;4.30;99.90;;;;;;5033340;28;20447;-78
2021/12/20 05:08:32;;;;;;;23.38;16.05;;;4.30;99.90;;;;;;5029551;28;20370;-78
2021/12/20 05:10:58;;;;;;;26.65;16.02;;;4.20;99.90;;;;;;5032016;28;20033;-80
2021/12/20 05:13:23;;;;;;;24.70;14.93;;;4.20;99.90;;;;;;5031631;28;20024;-77
2021/12/20 05:15:49;;;;;;;26.73;16.88;;;4.10;99.90;;;;;;5032111;28;20041;-79
2021/12/20 05:18:14;;;;;;;26.73;17.33;;;4.00;99.90;;;;;;5033857;28;20056;-78
2021/12/20 05:20:40;;;;;;;25.13;16.17;;;4.00;99.90;;;;;;5032014;28;20108;-78
2021/12/20 05:23:07;;;;;;;33.10;16.63;;;4.00;99.90;;;;;;5032591;28;20056;-78
2021/12/20 05:25:33;;;;;;;27.33;16.25;;;4.00;99.90;;;;;;5031667;28;20024;-80
2021/12/20 05:27:59;;;;;;;27.45;17.10;;;4.00;99.90;;;;;;5031348;28;20042;-78
2021/12/20 05:30:25;;;;;;;25.13;16.58;;;4.00;99.90;;;;;;5034239;28;20025;-78
2021/12/20 05:32:50;;;;;;;29.10;17.77;;;4.00;99.90;;;;;;5032660;28;20428;-77
2021/12/20 05:35:19;;;;;;;28.40;17.52;;;3.90;99.90;;;;;;5032934;28;20030;-78
2021/12/20 05:37:45;;;;;;;28.45;17.08;;;4.00;99.90;;;;;;5033042;28;20032;-78
2021/12/20 05:40:13;;;;;;;27.77;16.95;;;4.00;99.90;;;;;;5031794;28;20069;-79
2021/12/20 05:42:42;;;;;;;28.17;17.20;;;4.10;99.90;;;;;;5032495;28;20029;-78
2021/12/20 05:45:09;;;;;;;33.65;17.45;;;4.20;99.90;;;;;;5032927;28;20056;-79
2021/12/20 05:47:35;;;;;;;26.85;15.57;;;4.50;99.90;;;;;;5033575;28;20390;-78
2021/12/20 05:50:02;;;;;;;33.63;17.85;;;4.60;99.90;;;;;;5030602;28;20032;-77
2021/12/20 05:52:27;;;;;;;28.40;16.33;;;4.40;99.90;;;;;;5032971;28;20030;-77
2021/12/20 05:54:53;;;;;;;31.73;18.17;;;4.20;99.90;;;;;;5032911;28;20432;-78
2021/12/20 05:57:19;;;;;;;26.95;17.15;;;4.30;99.90;;;;;;5032868;28;20053;-78
2021/12/20 05:59:44;;;;;;;26.25;16.05;;;4.40;99.90;;;;;;5040676;28;20017;-77
2021/12/20 06:02:10;;;;;;;23.75;14.38;;;4.50;99.90;;;;;;5048670;28;20033;-77
2021/12/20 06:04:35;;;;;;;32.05;17.40;;;4.40;99.90;;;;;;5044340;28;20025;-78
2021/12/20 06:07:01;;;;;;;23.98;15.63;;;4.20;99.90;;;;;;5045712;28;20021;-79
2021/12/20 06:09:28;;;;;;;22.80;15.38;;;4.10;99.90;;;;;;5043798;28;20037;-77
2021/12/20 06:11:54;;;;;;;27.65;17.02;;;4.00;99.90;;;;;;5044455;28;20020;-78
2021/12/20 06:14:20;;;;;;;26.50;16.98;;;3.90;99.90;;;;;;5043414;28;20022;-77
2021/12/20 06:16:45;;;;;;;28.33;17.65;;;3.90;99.90;;;;;;5043493;28;20041;-77
2021/12/20 06:19:11;;;;;;;25.23;16.27;;;3.90;99.90;;;;;;5042012;28;20038;-77
2021/12/20 06:21:36;;;;;;;28.98;16.20;;;4.10;99.90;;;;;;5042806;28;20052;-79
2021/12/20 06:24:02;;;;;;;28.13;17.50;;;4.10;99.90;;;;;;5035658;28;20082;-78
2021/12/20 06:26:28;;;;;;;27.60;16.50;;;4.00;99.90;;;;;;5032692;28;20370;-79
2021/12/20 06:28:53;;;;;;;26.38;16.95;;;4.00;99.90;;;;;;5038350;28;20029;-77
2021/12/20 06:31:19;;;;;;;24.17;15.23;;;4.10;99.90;;;;;;5033332;28;20486;-78
2021/12/20 06:33:45;;;;;;;23.55;15.88;;;4.00;99.90;;;;;;5040896;28;20029;-78
2021/12/20 06:36:12;;;;;;;27.00;15.18;;;3.90;99.90;;;;;;5043404;28;20034;-77
2021/12/20 06:38:43;;;;;;;27.80;15.70;;;3.90;99.90;;;;;;5043531;28;20029;-78
2021/12/20 06:41:09;;;;;;;27.63;15.82;;;4.20;99.90;;;;;;5043336;28;20501;-78
2021/12/20 06:43:35;;;;;;;28.90;15.50;;;4.40;99.90;;;;;;5040343;28;20109;-77
2021/12/20 06:46:00;;;;;;;27.35;15.98;;;4.20;99.90;;;;;;5045624;28;20009;-78
2021/12/20 06:48:26;;;;;;;25.20;14.98;;;4.20;99.90;;;;;;5035686;28;20030;-76
2021/12/20 06:50:52;;;;;;;25.30;15.38;;;4.20;99.90;;;;;;5034680;28;20053;-78
2021/12/20 06:53:17;;;;;;;23.05;14.32;;;4.10;99.90;;;;;;5032214;28;20029;-77
2021/12/20 06:55:43;;;;;;;26.02;14.80;;;4.00;99.90;;;;;;5033461;28;20026;-79
2021/12/20 06:58:09;;;;;;;23.65;15.45;;;4.10;99.90;;;;;;5049076;28;20029;-77
2021/12/20 07:00:34;;;;;;;23.08;14.95;;;4.20;99.90;;;;;;5029109;28;20072;-78
2021/12/20 07:03:01;;;;;;;21.33;14.40;;;4.30;99.90;;;;;;5030706;28;20393;-78
2021/12/20 07:05:26;;;;;;;25.52;15.55;;;4.30;99.90;;;;;;5032467;28;20041;-78
2021/12/20 07:07:52;;;;;;;25.23;15.52;;;4.40;99.90;;;;;;5030596;28;20171;-77
2021/12/20 07:10:18;;;;;;;24.92;13.77;;;4.50;99.90;;;;;;5030897;28;20033;-78
2021/12/20 07:12:44;;;;;;;22.27;15.23;;;4.50;99.90;;;;;;5031093;28;20025;-78
2021/12/20 07:15:12;;;;;;;23.80;14.52;;;4.30;99.90;;;;;;5032002;28;20041;-78
2021/12/20 07:17:38;;;;;;;24.75;15.73;;;4.30;99.90;;;;;;5033912;28;20103;-77
2021/12/20 07:20:06;;;;;;;22.05;14.30;;;4.50;99.90;;;;;;5032373;28;20510;-78
2021/12/20 07:22:32;;;;;;;24.52;14.40;;;4.60;99.90;;;;;;5031527;28;20030;-79
2021/12/20 07:24:57;;;;;;;25.17;16.02;;;4.50;99.90;;;;;;5038100;28;20092;-78
2021/12/20 07:27:23;;;;;;;22.27;15.27;;;4.50;99.90;;;;;;5048877;28;20070;-78
2021/12/20 07:29:48;;;;;;;25.95;15.18;;;4.40;99.90;;;;;;5048818;28;20041;-76
2021/12/20 07:32:14;;;;;;;25.58;16.50;;;4.30;99.90;;;;;;5050654;28;20026;-78
2021/12/20 07:34:40;;;;;;;23.05;14.73;;;4.30;99.90;;;;;;5054701;28;20021;-77
2021/12/20 07:37:06;;;;;;;22.02;14.32;;;4.40;99.90;;;;;;5061687;28;20071;-77
2021/12/20 07:39:32;;;;;;;25.45;16.38;;;4.40;99.90;;;;;;5063677;28;20017;-77
2021/12/20 07:41:59;;;;;;;20.33;13.18;;;4.50;99.90;;;;;;5059387;28;20017;-77
2021/12/20 07:44:25;;;;;;;29.95;16.17;;;4.50;99.90;;;;;;5038206;28;20433;-78
2021/12/20 07:46:51;;;;;;;27.25;16.10;;;4.40;99.90;;;;;;5027815;28;20079;-80
2021/12/20 07:49:17;;;;;;;22.92;15.35;;;4.50;99.90;;;;;;5033996;28;20022;-78
2021/12/20 07:51:42;;;;;;;23.15;15.13;;;4.50;99.90;;;;;;5034168;28;20029;-78
2021/12/20 07:54:08;;;;;;;25.40;15.90;;;4.50;99.90;;;;;;5028204;28;20026;-78
2021/12/20 07:56:34;;;;;;;29.55;15.82;;;4.60;99.90;;;;;;5035500;28;20579;-78
2021/12/20 07:59:00;;;;;;;24.70;15.60;;;4.60;99.90;;;;;;5043564;28;20040;-78
2021/12/20 08:01:27;;;;;;;23.75;14.93;;;4.60;99.90;;;;;;5047404;28;20090;-78
2021/12/20 08:03:53;;;;;;;26.10;15.00;;;4.60;99.90;;;;;;5036818;28;20374;-79
2021/12/20 08:06:19;;;;;;;22.13;16.10;;;4.70;99.90;;;;;;5034942;28;20025;-78
2021/12/20 08:08:45;;;;;;;27.13;18.35;;;4.70;99.90;;;;;;5035526;28;20025;-78
2021/12/20 08:11:11;;;;;;;21.60;14.45;;;4.60;99.90;;;;;;5044532;28;20028;-77
2021/12/20 08:13:44;;;;;;;22.50;14.82;;;4.60;99.90;;;;;;5031927;28;20044;-81
2021/12/20 08:16:15;;;;;;;31.20;17.33;;;4.70;99.90;;;;;;5032227;28;20033;-81
2021/12/20 08:18:43;;;;;;;24.98;15.13;;;4.70;99.90;;;;;;5034430;28;20026;-80
2021/12/20 08:21:09;;;;;;;24.77;15.52;;;4.80;99.90;;;;;;5035210;28;20683;-78
2021/12/20 08:23:36;;;;;;;27.98;17.05;;;4.60;99.90;;;;;;5033772;28;20036;-80
2021/12/20 08:26:02;;;;;;;24.00;15.23;;;4.70;99.90;;;;;;5035246;28;20025;-80
2021/12/20 08:28:27;;;;;;;25.27;15.27;;;4.80;99.90;;;;;;5036148;28;20029;-80
2021/12/20 08:30:53;;;;;;;24.60;15.82;;;4.80;99.90;;;;;;5035277;28;20032;-80
2021/12/20 08:33:19;;;;;;;25.05;15.55;;;4.70;99.90;;;;;;5034731;28;20039;-81
2021/12/20 08:35:49;;;;;;;26.25;16.77;;;4.70;99.90;;;;;;5034356;28;20112;-80
2021/12/20 08:38:19;;;;;;;25.75;14.82;;;4.80;99.90;;;;;;5033467;28;20029;-79
2021/12/20 08:40:45;;;;;;;25.92;15.45;;;4.60;99.90;;;;;;5033264;28;20026;-79
2021/12/20 08:43:10;;;;;;;24.65;14.68;;;4.60;99.90;;;;;;5034151;28;20029;-80
2021/12/20 08:45:36;;;;;;;28.80;14.52;;;4.60;99.90;;;;;;5036180;28;20017;-81
2021/12/20 08:48:02;;;;;;;26.10;14.98;;;5.00;99.90;;;;;;5028795;28;20022;-78
2021/12/20 08:50:28;;;;;;;24.33;16.00;;;5.00;99.90;;;;;;5033715;28;20026;-80
2021/12/20 08:52:54;;;;;;;22.20;14.82;;;5.00;99.90;;;;;;5029989;28;20025;-80
2021/12/20 08:55:21;;;;;;;25.58;15.38;;;5.00;99.90;;;;;;5034298;28;20034;-79
2021/12/20 08:57:47;;;;;;;25.60;16.08;;;5.10;99.90;;;;;;5034653;28;20112;-80
2021/12/20 09:00:17;;;;;;;20.15;14.82;;;5.10;99.90;;;;;;5034927;28;20524;-82
2021/12/20 09:02:43;;;;;;;23.77;14.43;;;5.20;99.90;;;;;;5033190;28;20021;-79
2021/12/20 09:05:08;;;;;;;23.17;15.20;;;5.20;99.90;;;;;;5034364;28;20099;-80
2021/12/20 09:07:36;;;;;;;28.85;15.43;;;5.30;99.90;;;;;;5034040;28;20025;-80
2021/12/20 09:10:03;;;;;;;27.35;15.15;;;5.40;99.90;;;;;;5035422;28;20108;-79
2021/12/20 09:12:28;;;;;;;24.48;15.13;;;5.40;99.90;;;;;;5033183;28;20030;-79
2021/12/20 09:14:54;;;;;;;26.30;15.88;;;5.40;99.90;;;;;;5034354;28;20028;-79
2021/12/20 09:17:19;;;;;;;26.33;15.57;;;5.40;99.90;;;;;;5033631;28;20029;-79
2021/12/20 09:19:45;;;;;;;22.90;15.38;;;5.40;99.90;;;;;;5033881;28;20017;-78
2021/12/20 09:22:11;;;;;;;25.27;15.27;;;5.50;99.90;;;;;;5035483;28;20374;-79
2021/12/20 09:24:39;;;;;;;26.92;16.88;;;5.50;99.90;;;;;;5038396;28;20021;-80
2021/12/20 09:27:05;;;;;;;27.45;16.25;;;5.30;99.90;;;;;;5033743;28;20445;-79
2021/12/20 09:29:31;;;;;;;25.10;16.42;;;5.40;99.90;;;;;;5033726;28;20045;-80
2021/12/20 09:31:58;;;;;;;25.40;16.02;;;5.50;99.90;;;;;;5035441;28;20029;-81
2021/12/20 09:34:24;;;;;;;22.17;14.45;;;5.40;99.90;;;;;;5027678;28;20509;-80
2021/12/20 09:36:51;;;;;;;26.85;16.45;;;5.50;99.90;;;;;;5036304;28;20034;-80
2021/12/20 09:39:18;;;;;;;24.27;15.35;;;5.50;99.90;;;;;;5036019;28;20032;-80
2021/12/20 09:44:11;;;;;;;19.77;14.90;;;5.60;99.90;;;;;;5036504;28;20021;-80
2021/12/20 09:46:38;;;;;;;25.48;16.40;;;5.70;99.90;;;;;;5035440;28;20018;-79
2021/12/20 09:49:04;;;;;;;29.38;15.98;;;5.70;99.90;;;;;;5033618;28;20036;-82
2021/12/20 09:51:31;;;;;;;26.40;15.98;;;5.80;99.90;;;;;;5033685;28;20021;-80
2021/12/20 09:53:56;;;;;;;24.80;15.50;;;5.70;99.90;;;;;;5032872;28;20374;-80
2021/12/20 09:56:24;;;;;;;25.70;17.73;;;5.80;99.90;;;;;;5031309;28;20029;-77
2021/12/20 09:58:55;;;;;;;25.35;16.63;;;5.90;99.90;;;;;;5031294;28;20030;-76
2021/12/20 10:01:22;;;;;;;26.83;16.05;;;6.00;99.90;;;;;;5030211;28;20128;-77
2021/12/20 10:03:49;;;;;;;24.65;15.82;;;5.80;99.90;;;;;;5031474;28;20025;-76
2021/12/20 10:06:15;;;;;;;24.65;14.85;;;5.70;99.90;;;;;;5031156;28;20030;-77
2021/12/20 10:08:50;;;;;;;25.45;16.98;;;5.80;99.90;;;;;;5047615;28;20079;-78
2021/12/20 10:11:21;;;;;;;27.58;16.80;;;5.80;99.90;;;;;;5033027;28;20021;-77
2021/12/20 10:13:48;;;;;;;25.50;16.98;;;6.20;99.90;;;;;;5033574;28;20093;-77
2021/12/20 10:16:21;;;;;;;24.65;16.33;;;6.40;99.90;;;;;;5032400;28;20029;-77
2021/12/20 10:18:48;;;;;;;25.05;16.77;;;6.40;99.90;;;;;;5030289;28;20079;-76
2021/12/20 10:21:14;;;;;;;26.45;18.15;;;6.50;99.90;;;;;;5030824;28;20385;-77
2021/12/20 10:23:45;;;;;;;27.73;17.65;;;6.70;99.90;;;;;;5032671;28;20033;-76
2021/12/20 10:26:20;;;;;;;28.30;18.05;;;6.70;99.90;;;;;;5026544;28;20033;-75
2021/12/20 10:28:48;;;;;;;32.75;19.33;;;6.70;99.90;;;;;;5027442;28;20052;-77
2021/12/20 10:31:19;;;;;;;25.73;17.38;;;6.70;99.90;;;;;;5030524;28;20117;-78
2021/12/20 10:34:03;;;;;;;28.33;17.35;;;6.80;99.90;;;;;;5031869;28;20500;-77
2021/12/20 10:36:31;;;;;;;25.58;16.90;;;6.80;99.90;;;;;;5028778;28;20481;-78
2021/12/20 10:38:58;;;;;;;24.17;17.67;;;7.10;99.90;;;;;;5023608;28;20021;-78
2021/12/20 10:41:37;;;;;;;20.70;15.05;;;7.40;99.90;;;;;;5031328;28;20076;-77
2021/12/20 10:44:15;;;;;;;26.52;16.88;;;7.40;99.90;;;;;;5032764;28;20025;-77
2021/12/20 10:46:53;;;;;;;24.10;15.82;;;7.20;99.90;;;;;;5032334;28;20026;-77
2021/12/20 10:49:26;;;;;;;25.38;16.10;;;6.90;99.90;;;;;;5033422;28;20084;-78
2021/12/20 10:51:52;;;;;;;25.77;16.00;;;6.60;99.90;;;;;;5033770;28;20120;-78
2021/12/20 10:54:21;;;;;;;23.00;15.00;;;6.50;99.90;;;;;;5026440;28;20029;-78
2021/12/20 10:56:53;;;;;;;21.98;14.77;;;6.30;99.90;;;;;;5019744;28;20032;-77
2021/12/20 10:59:24;;;;;;;19.17;12.65;;;6.20;99.90;;;;;;5031560;28;20439;-77
2021/12/20 11:04:42;;;;;;;13.90;9.15;;;6.40;99.90;;;;;;5031289;28;20575;-78
2021/12/20 11:09:43;;;;;;;15.82;9.50;;;7.10;99.90;;;;;;5034583;28;20024;-79
2021/12/20 11:12:11;;;;;;;13.13;9.70;;;7.10;99.90;;;;;;5036344;28;20025;-79
2021/12/20 11:14:49;;;;;;;17.15;11.88;;;7.20;99.90;;;;;;5037808;28;20048;-79
2021/12/20 11:17:17;;;;;;;15.00;10.50;;;7.00;99.90;;;;;;5037983;28;20036;-79
2021/12/20 11:19:54;;;;;;;19.85;12.57;;;7.00;99.90;;;;;;5036756;28;20097;-79
2021/12/20 11:22:24;;;;;;;18.92;12.05;;;6.90;99.90;;;;;;5035371;28;20091;-78
2021/12/20 11:24:51;;;;;;;19.33;11.37;;;7.00;99.90;;;;;;5034239;28;20035;-78
2021/12/20 11:27:21;;;;;;;15.55;10.95;;;7.10;99.90;;;;;;5035985;28;20128;-79
2021/12/20 11:29:49;;;;;;;16.67;11.63;;;7.20;99.90;;;;;;5038756;28;20048;-77
2021/12/20 11:32:16;;;;;;;16.77;11.18;;;7.20;99.90;;;;;;5029168;28;20506;-77
2021/12/20 11:34:42;;;;;;;15.80;10.80;;;7.80;99.90;;;;;;5035643;28;20549;-77
2021/12/20 11:37:11;;;;;;;17.70;12.55;;;8.00;99.90;;;;;;5036475;28;20040;-77
2021/12/20 11:39:37;;;;;;;19.27;14.25;;;8.30;99.90;;;;;;5035911;28;20056;-79
2021/12/20 11:42:05;;;;;;;21.83;13.25;;;7.80;99.90;;;;;;5035882;28;20053;-77
2021/12/20 11:44:31;;;;;;;19.95;12.77;;;7.70;99.90;;;;;;5034657;28;20048;-76
2021/12/20 11:47:15;;;;;;;23.20;15.57;;;7.50;99.90;;;;;;5031699;28;20048;-77
2021/12/20 11:49:40;;;;;;;26.73;15.05;;;7.20;99.90;;;;;;5032792;28;20105;-78
2021/12/20 11:52:15;;;;;;;20.42;13.65;;;7.10;99.90;;;;;;5034087;28;20052;-78
2021/12/20 11:54:52;;;;;;;18.90;12.30;;;6.90;99.90;;;;;;5025835;28;20021;-77
2021/12/20 11:57:34;;;;;;;21.30;13.02;;;6.60;99.90;;;;;;5034424;28;20025;-75
2021/12/20 12:00:26;;;;;;;20.08;12.65;;;6.40;99.90;;;;;;5034524;28;20108;-77
2021/12/20 12:02:55;;;;;;;20.88;12.48;;;6.30;99.90;;;;;;5033634;28;20455;-77
2021/12/20 12:05:40;;;;;;;19.65;13.68;;;6.20;99.90;;;;;;5034814;28;20017;-78
2021/12/20 12:08:24;;;;;;;23.45;14.18;;;6.10;99.90;;;;;;5036446;28;20026;-76
2021/12/20 12:10:52;;;;;;;22.33;12.70;;;6.10;99.90;;;;;;5034276;28;20037;-77
2021/12/20 12:13:19;;;;;;;21.88;13.25;;;6.10;99.90;;;;;;5034345;28;20034;-76
2021/12/20 12:16:02;;;;;;;21.27;13.75;;;6.20;99.90;;;;;;5036143;28;20044;-78
2021/12/20 12:18:49;;;;;;;18.85;11.77;;;6.30;99.90;;;;;;5028455;28;20354;-77
2021/12/20 12:21:33;;;;;;;23.00;11.15;;;6.30;99.90;;;;;;5033767;28;20088;-77
2021/12/20 12:24:03;;;;;;;13.45;9.50;;;6.30;99.90;;;;;;5034020;28;20029;-77
2021/12/20 12:26:34;;;;;;;14.82;9.15;;;6.40;99.90;;;;;;5035135;28;20014;-77
2021/12/20 12:29:01;;;;;;;17.73;10.45;;;6.50;99.90;;;;;;5034082;28;20030;-77
2021/12/20 12:31:41;;;;;;;15.57;9.50;;;6.40;99.90;;;;;;5033966;28;20064;-78
2021/12/20 12:34:11;;;;;;;17.73;9.05;;;6.50;99.90;;;;;;5034652;28;20021;-77
2021/12/20 12:36:41;;;;;;;15.98;9.63;;;6.60;99.90;;;;;;5033456;28;20113;-76
2021/12/20 12:39:28;;;;;;;13.40;9.57;;;6.60;99.90;;;;;;5036531;28;20021;-78
2021/12/20 12:42:00;;;;;;;15.95;9.15;;;6.50;99.90;;;;;;5029510;28;20094;-78
2021/12/20 12:44:30;;;;;;;13.60;9.73;;;6.50;99.90;;;;;;5027403;28;20022;-79
2021/12/20 12:47:13;;;;;;;13.25;9.60;;;6.60;99.90;;;;;;5033876;28;20025;-78
2021/12/20 12:49:46;;;;;;;25.55;10.50;;;6.50;99.90;;;;;;5034021;28;20022;-79
2021/12/20 12:52:18;;;;;;;13.30;9.50;;;6.50;99.90;;;;;;5033013;28;20021;-78
2021/12/20 12:54:52;;;;;;;18.92;9.55;;;6.60;99.90;;;;;;5035369;28;20017;-81
2021/12/20 12:57:17;;;;;;;16.95;9.82;;;6.60;99.90;;;;;;5043119;28;20037;-82
2021/12/20 12:59:56;;;;;;;16.38;10.43;;;6.40;99.90;;;;;;5034558;28;20013;-80
2021/12/20 13:02:36;;;;;;;17.38;10.10;;;6.40;99.90;;;;;;5036784;28;20013;-78
2021/12/20 13:05:15;;;;;;;16.92;9.77;;;6.10;99.90;;;;;;5035375;28;20025;-78
2021/12/20 13:07:53;;;;;;;15.75;9.90;;;6.10;99.90;;;;;;5035194;28;20104;-80